sensor_id;sensor_type;location;lat;lon;timestamp;pressure;altitude;pressure_sealevel;temperature;humidity
69751;BME280;57335;52.288;6.056;2023-08-08T00:00:38;101361.41;;;13.69;100.00
69751;BME280;57335;52.288;6.056;2023-08-08T00:03:04;101363.81;;;13.71;100.00
69751;BME280;57335;52.288;6.056;2023-08-08T00:05:31;101363.00;;;13.70;100.00
69751;BME280;57335;52.288;6.056;2023-08-08T00:07:57;101358.97;;;13.68;100.00
69751;BME280;57335;52.288;6.056;2023-08-08T00:10:24;101347.06;;;13.59;100.00
69751;BME280;57335;52.288;6.056;2023-08-08T00:12:50;101355.38;;;13.62;100.00
69751;BME280;57335;52.288;6.056;2023-08-08T00:15:17;101344.06;;;13.55;100.00
69751;BME280;57335;52.288;6.056;2023-08-08T00:17:43;101342.66;;;13.52;100.00
69751;BME280;57335;52.288;6.056;2023-08-08T00:20:10;101345.09;;;13.54;100.00
69751;BME280;57335;52.288;6.056;2023-08-08T00:22:36;101342.66;;;13.52;100.00
69751;BME280;57335;52.288;6.056;2023-08-08T00:25:03;101344.28;;;13.53;100.00
69751;BME280;57335;52.288;6.056;2023-08-08T00:27:30;101329.34;;;13.47;100.00
69751;BME280;57335;52.288;6.056;2023-08-08T00:29:56;101325.47;;;13.50;100.00
69751;BME280;57335;52.288;6.056;2023-08-08T00:32:22;101332.50;;;13.56;100.00
69751;BME280;57335;52.288;6.056;2023-08-08T00:34:49;101337.97;;;13.61;100.00
69751;BME280;57335;52.288;6.056;2023-08-08T00:37:15;101335.09;;;13.63;100.00
69751;BME280;57335;52.288;6.056;2023-08-08T00:39:41;101329.81;;;13.63;100.00
69751;BME280;57335;52.288;6.056;2023-08-08T00:42:08;101329.63;;;13.64;100.00
69751;BME280;57335;52.288;6.056;2023-08-08T00:44:34;101334.47;;;13.67;100.00
69751;BME280;57335;52.288;6.056;2023-08-08T00:47:00;101345.75;;;13.74;100.00
69751;BME280;57335;52.288;6.056;2023-08-08T00:49:27;101340.06;;;13.77;100.00
69751;BME280;57335;52.288;6.056;2023-08-08T00:51:53;101331.34;;;13.77;100.00
69751;BME280;57335;52.288;6.056;2023-08-08T00:54:20;101326.06;;;13.77;100.00
69751;BME280;57335;52.288;6.056;2023-08-08T00:56:46;101312.91;;;13.77;100.00
69751;BME280;57335;52.288;6.056;2023-08-08T00:59:13;101333.28;;;13.88;100.00
69751;BME280;57335;52.288;6.056;2023-08-08T01:01:42;101317.91;;;13.85;100.00
69751;BME280;57335;52.288;6.056;2023-08-08T01:04:08;101316.22;;;13.91;100.00
69751;BME280;57335;52.288;6.056;2023-08-08T01:06:46;101316.47;;;13.89;100.00
69751;BME280;57335;52.288;6.056;2023-08-08T01:09:30;101327.72;;;13.96;100.00
69751;BME280;57335;52.288;6.056;2023-08-08T01:11:59;101322.69;;;13.95;100.00
69751;BME280;57335;52.288;6.056;2023-08-08T01:14:28;101313.97;;;13.94;100.00
69751;BME280;57335;52.288;6.056;2023-08-08T01:16:56;101316.31;;;14.03;100.00
69751;BME280;57335;52.288;6.056;2023-08-08T01:19:26;101305.41;;;13.99;100.00
69751;BME280;57335;52.288;6.056;2023-08-08T01:21:53;101310.63;;;14.06;100.00
69751;BME280;57335;52.288;6.056;2023-08-08T01:24:22;101312.47;;;14.05;100.00
69751;BME280;57335;52.288;6.056;2023-08-08T01:26:49;101293.44;;;14.03;100.00
69751;BME280;57335;52.288;6.056;2023-08-08T01:29:16;101302.72;;;14.06;100.00
69751;BME280;57335;52.288;6.056;2023-08-08T01:31:42;101292.69;;;13.96;100.00
69751;BME280;57335;52.288;6.056;2023-08-08T01:34:09;101309.09;;;13.98;100.00
69751;BME280;57335;52.288;6.056;2023-08-08T01:36:48;101306.13;;;13.88;100.00
69751;BME280;57335;52.288;6.056;2023-08-08T01:39:23;101304.97;;;13.84;100.00
69751;BME280;57335;52.288;6.056;2023-08-08T01:41:52;101313.00;;;13.89;100.00
69751;BME280;57335;52.288;6.056;2023-08-08T01:44:20;101305.53;;;13.86;100.00
69751;BME280;57335;52.288;6.056;2023-08-08T01:46:47;101305.69;;;13.91;100.00
69751;BME280;57335;52.288;6.056;2023-08-08T01:49:14;101305.34;;;13.87;100.00
69751;BME280;57335;52.288;6.056;2023-08-08T01:51:41;101314.63;;;13.90;100.00
69751;BME280;57335;52.288;6.056;2023-08-08T01:54:07;101298.22;;;13.88;100.00
69751;BME280;57335;52.288;6.056;2023-08-08T01:56:33;101299.81;;;13.89;100.00
69751;BME280;57335;52.288;6.056;2023-08-08T01:59:00;101304.47;;;13.93;100.00
69751;BME280;57335;52.288;6.056;2023-08-08T02:01:27;101291.72;;;13.90;100.00
69751;BME280;57335;52.288;6.056;2023-08-08T02:03:53;101293.09;;;13.93;100.00
69751;BME280;57335;52.288;6.056;2023-08-08T02:06:20;101285.78;;;13.95;100.00
69751;BME280;57335;52.288;6.056;2023-08-08T02:08:47;101276.13;;;13.89;100.00
69751;BME280;57335;52.288;6.056;2023-08-08T02:11:13;101285.66;;;13.90;100.00
69751;BME280;57335;52.288;6.056;2023-08-08T02:13:40;101290.03;;;13.96;100.00
69751;BME280;57335;52.288;6.056;2023-08-08T02:16:06;101275.25;;;13.95;100.00
69751;BME280;57335;52.288;6.056;2023-08-08T02:18:32;101278.91;;;13.94;100.00
69751;BME280;57335;52.288;6.056;2023-08-08T02:20:59;101275.63;;;13.99;100.00
69751;BME280;57335;52.288;6.056;2023-08-08T02:23:25;101278.03;;;14.00;100.00
69751;BME280;57335;52.288;6.056;2023-08-08T02:25:52;101269.97;;;13.95;100.00
69751;BME280;57335;52.288;6.056;2023-08-08T02:28:18;101275.63;;;13.99;100.00
69751;BME280;57335;52.288;6.056;2023-08-08T02:30:44;101263.09;;;13.94;100.00
69751;BME280;57335;52.288;6.056;2023-08-08T02:33:11;101271.22;;;13.92;100.00
69751;BME280;57335;52.288;6.056;2023-08-08T02:35:37;101275.84;;;13.97;100.00
69751;BME280;57335;52.288;6.056;2023-08-08T02:38:03;101275.25;;;13.95;100.00
69751;BME280;57335;52.288;6.056;2023-08-08T02:40:30;101276.41;;;13.99;100.00
69751;BME280;57335;52.288;6.056;2023-08-08T02:42:56;101281.69;;;13.99;100.00
69751;BME280;57335;52.288;6.056;2023-08-08T02:45:23;101253.44;;;13.88;100.00
69751;BME280;57335;52.288;6.056;2023-08-08T02:47:49;101275.41;;;14.00;100.00
69751;BME280;57335;52.288;6.056;2023-08-08T02:50:16;101259.44;;;13.95;100.00
69751;BME280;57335;52.288;6.056;2023-08-08T02:52:42;101255.13;;;14.01;100.00
69751;BME280;57335;52.288;6.056;2023-08-08T02:55:09;101259.00;;;13.98;100.00
69751;BME280;57335;52.288;6.056;2023-08-08T02:57:35;101265.03;;;14.05;100.00
69751;BME280;57335;52.288;6.056;2023-08-08T03:00:02;101260.56;;;14.06;100.00
69751;BME280;57335;52.288;6.056;2023-08-08T03:02:28;101253.31;;;14.01;100.00
69751;BME280;57335;52.288;6.056;2023-08-08T03:04:55;101253.53;;;14.00;100.00
69751;BME280;57335;52.288;6.056;2023-08-08T03:07:21;101249.28;;;13.99;100.00
69751;BME280;57335;52.288;6.056;2023-08-08T03:09:48;101252.94;;;13.98;100.00
69751;BME280;57335;52.288;6.056;2023-08-08T03:12:14;101259.44;;;13.95;100.00
69751;BME280;57335;52.288;6.056;2023-08-08T03:14:40;101254.63;;;13.92;100.00
69751;BME280;57335;52.288;6.056;2023-08-08T03:17:07;101254.63;;;13.92;100.00
69751;BME280;57335;52.288;6.056;2023-08-08T03:19:33;101254.63;;;13.92;100.00
69751;BME280;57335;52.288;6.056;2023-08-08T03:22:00;101249.19;;;13.87;100.00
69751;BME280;57335;52.288;6.056;2023-08-08T03:24:27;101248.16;;;13.88;100.00
69751;BME280;57335;52.288;6.056;2023-08-08T03:26:53;101244.94;;;13.86;100.00
69751;BME280;57335;52.288;6.056;2023-08-08T03:29:19;101243.31;;;13.85;100.00
69751;BME280;57335;52.288;6.056;2023-08-08T03:31:46;101239.50;;;13.81;100.00
69751;BME280;57335;52.288;6.056;2023-08-08T03:34:12;101247.78;;;13.84;100.00
69751;BME280;57335;52.288;6.056;2023-08-08T03:36:40;101247.00;;;13.84;100.00
69751;BME280;57335;52.288;6.056;2023-08-08T03:39:08;101241.94;;;13.82;100.00
69751;BME280;57335;52.288;6.056;2023-08-08T03:41:35;101242.09;;;13.87;100.00
69751;BME280;57335;52.288;6.056;2023-08-08T03:44:01;101240.06;;;13.89;100.00
69751;BME280;57335;52.288;6.056;2023-08-08T03:46:28;101230.75;;;13.87;100.00
69751;BME280;57335;52.288;6.056;2023-08-08T03:48:55;101230.75;;;13.87;100.00
69751;BME280;57335;52.288;6.056;2023-08-08T03:51:21;101240.41;;;13.93;100.00
69751;BME280;57335;52.288;6.056;2023-08-08T03:53:48;101222.03;;;13.86;100.00
69751;BME280;57335;52.288;6.056;2023-08-08T03:56:14;101234.13;;;13.94;100.00
69751;BME280;57335;52.288;6.056;2023-08-08T03:58:41;101227.31;;;13.86;100.00
69751;BME280;57335;52.288;6.056;2023-08-08T04:01:07;101233.97;;;13.89;100.00
69751;BME280;57335;52.288;6.056;2023-08-08T04:03:33;101229.13;;;13.86;100.00
69751;BME280;57335;52.288;6.056;2023-08-08T04:06:00;101225.13;;;13.83;100.00
69751;BME280;57335;52.288;6.056;2023-08-08T04:08:26;101216.47;;;13.76;100.00
69751;BME280;57335;52.288;6.056;2023-08-08T04:10:53;101223.34;;;13.77;100.00
69751;BME280;57335;52.288;6.056;2023-08-08T04:13:19;101221.53;;;13.77;100.00
69751;BME280;57335;52.288;6.056;2023-08-08T04:15:45;101211.28;;;13.69;100.00
69751;BME280;57335;52.288;6.056;2023-08-08T04:18:12;101198.16;;;13.63;100.00
69751;BME280;57335;52.288;6.056;2023-08-08T04:20:38;101205.03;;;13.64;100.00
69751;BME280;57335;52.288;6.056;2023-08-08T04:23:05;101210.09;;;13.65;100.00
69751;BME280;57335;52.288;6.056;2023-08-08T04:25:31;101213.16;;;13.62;100.00
69751;BME280;57335;52.288;6.056;2023-08-08T04:27:58;101198.16;;;13.63;100.00
69751;BME280;57335;52.288;6.056;2023-08-08T04:30:24;101208.25;;;13.66;100.00
69751;BME280;57335;52.288;6.056;2023-08-08T04:32:50;101211.47;;;13.68;100.00
69751;BME280;57335;52.288;6.056;2023-08-08T04:35:17;101211.09;;;13.64;100.00
69751;BME280;57335;52.288;6.056;2023-08-08T04:37:44;101214.50;;;13.71;100.00
69751;BME280;57335;52.288;6.056;2023-08-08T04:40:10;101211.84;;;13.71;100.00
69751;BME280;57335;52.288;6.056;2023-08-08T04:42:37;101201.16;;;13.66;100.00
69751;BME280;57335;52.288;6.056;2023-08-08T04:45:04;101212.38;;;13.80;100.00
69751;BME280;57335;52.288;6.056;2023-08-08T04:47:31;101208.94;;;13.80;100.00
69751;BME280;57335;52.288;6.056;2023-08-08T04:49:57;101218.59;;;13.86;100.00
69751;BME280;57335;52.288;6.056;2023-08-08T04:52:24;101212.97;;;13.82;100.00
69751;BME280;57335;52.288;6.056;2023-08-08T04:54:50;101212.09;;;13.88;100.00
69751;BME280;57335;52.288;6.056;2023-08-08T04:57:16;101215.09;;;13.92;100.00
69751;BME280;57335;52.288;6.056;2023-08-08T04:59:43;101214.06;;;13.93;100.00
69751;BME280;57335;52.288;6.056;2023-08-08T05:02:09;101204.97;;;13.89;100.00
69751;BME280;57335;52.288;6.056;2023-08-08T05:04:35;101207.31;;;13.97;100.00
69751;BME280;57335;52.288;6.056;2023-08-08T05:07:02;101206.97;;;13.93;100.00
69751;BME280;57335;52.288;6.056;2023-08-08T05:09:28;101211.16;;;14.01;100.00
69751;BME280;57335;52.288;6.056;2023-08-08T05:11:55;101207.06;;;14.05;100.00
69751;BME280;57335;52.288;6.056;2023-08-08T05:14:21;101211.16;;;14.20;100.00
69751;BME280;57335;52.288;6.056;2023-08-08T05:16:47;101205.56;;;14.28;100.00
69751;BME280;57335;52.288;6.056;2023-08-08T05:19:14;101209.66;;;14.42;100.00
69751;BME280;57335;52.288;6.056;2023-08-08T05:21:40;101201.88;;;14.47;100.00
69751;BME280;57335;52.288;6.056;2023-08-08T05:24:07;101205.44;;;14.53;100.00
69751;BME280;57335;52.288;6.056;2023-08-08T05:26:33;101202.97;;;14.58;100.00
69751;BME280;57335;52.288;6.056;2023-08-08T05:28:59;101210.44;;;14.61;100.00
69751;BME280;57335;52.288;6.056;2023-08-08T05:31:26;101210.59;;;14.66;100.00
69751;BME280;57335;52.288;6.056;2023-08-08T05:33:52;101210.94;;;14.70;100.00
69751;BME280;57335;52.288;6.056;2023-08-08T05:36:19;101211.25;;;14.92;100.00
69751;BME280;57335;52.288;6.056;2023-08-08T05:38:45;101213.50;;;15.30;100.00
69751;BME280;57335;52.288;6.056;2023-08-08T05:41:12;101213.06;;;15.92;100.00
69751;BME280;57335;52.288;6.056;2023-08-08T05:43:38;101210.94;;;16.75;100.00
69751;BME280;57335;52.288;6.056;2023-08-08T05:46:04;101223.50;;;17.65;100.00
69751;BME280;57335;52.288;6.056;2023-08-08T05:48:31;101213.25;;;18.57;100.00
69751;BME280;57335;52.288;6.056;2023-08-08T05:50:57;101218.06;;;19.57;100.00
69751;BME280;57335;52.288;6.056;2023-08-08T05:53:24;101225.13;;;20.57;95.19
69751;BME280;57335;52.288;6.056;2023-08-08T05:55:50;101221.44;;;21.40;87.98
69751;BME280;57335;52.288;6.056;2023-08-08T05:58:17;101222.31;;;22.10;83.59
69751;BME280;57335;52.288;6.056;2023-08-08T06:00:43;101222.44;;;22.84;79.63
69751;BME280;57335;52.288;6.056;2023-08-08T06:03:10;101234.41;;;23.56;75.57
69751;BME280;57335;52.288;6.056;2023-08-08T06:05:36;101230.75;;;24.19;71.84
69751;BME280;57335;52.288;6.056;2023-08-08T06:08:03;101235.38;;;24.89;69.16
69751;BME280;57335;52.288;6.056;2023-08-08T06:10:29;101228.56;;;25.43;66.33
69751;BME280;57335;52.288;6.056;2023-08-08T06:12:56;101227.31;;;25.96;63.59
69751;BME280;57335;52.288;6.056;2023-08-08T06:15:22;101229.72;;;26.34;58.83
69751;BME280;57335;52.288;6.056;2023-08-08T06:17:48;101224.16;;;26.67;58.84
69751;BME280;57335;52.288;6.056;2023-08-08T06:20:15;101236.25;;;27.01;57.50
69751;BME280;57335;52.288;6.056;2023-08-08T06:22:41;101241.69;;;27.41;56.74
69751;BME280;57335;52.288;6.056;2023-08-08T06:25:08;101231.19;;;27.71;52.87
69751;BME280;57335;52.288;6.056;2023-08-08T06:27:34;101239.84;;;28.08;53.83
69751;BME280;57335;52.288;6.056;2023-08-08T06:30:01;101243.03;;;28.44;52.18
69751;BME280;57335;52.288;6.056;2023-08-08T06:32:27;101244.63;;;28.80;51.14
69751;BME280;57335;52.288;6.056;2023-08-08T06:34:54;101237.28;;;29.16;49.81
69751;BME280;57335;52.288;6.056;2023-08-08T06:37:20;101238.41;;;29.53;49.08
69751;BME280;57335;52.288;6.056;2023-08-08T06:39:46;101242.06;;;29.87;47.33
69751;BME280;57335;52.288;6.056;2023-08-08T06:42:13;101241.03;;;30.21;46.28
69751;BME280;57335;52.288;6.056;2023-08-08T06:44:43;101236.56;;;30.47;45.08
69751;BME280;57335;52.288;6.056;2023-08-08T06:47:10;101248.59;;;30.70;44.63
69751;BME280;57335;52.288;6.056;2023-08-08T06:49:37;101236.94;;;30.91;44.37
69751;BME280;57335;52.288;6.056;2023-08-08T06:52:04;101241.97;;;31.13;43.47
69751;BME280;57335;52.288;6.056;2023-08-08T06:54:31;101243.47;;;31.35;42.40
69751;BME280;57335;52.288;6.056;2023-08-08T06:56:58;101250.59;;;31.52;41.95
69751;BME280;57335;52.288;6.056;2023-08-08T06:59:26;101246.97;;;31.73;40.30
69751;BME280;57335;52.288;6.056;2023-08-08T07:01:53;101244.16;;;31.82;38.12
69751;BME280;57335;52.288;6.056;2023-08-08T07:04:20;101240.44;;;31.74;40.29
69751;BME280;57335;52.288;6.056;2023-08-08T07:06:47;101238.63;;;31.78;40.65
69751;BME280;57335;52.288;6.056;2023-08-08T07:09:13;101237.13;;;31.93;40.24
69751;BME280;57335;52.288;6.056;2023-08-08T07:11:40;101225.16;;;31.94;39.17
69751;BME280;57335;52.288;6.056;2023-08-08T07:14:06;101245.25;;;32.05;39.27
69751;BME280;57335;52.288;6.056;2023-08-08T07:16:33;101237.81;;;31.90;38.33
69751;BME280;57335;52.288;6.056;2023-08-08T07:18:59;101234.13;;;31.70;38.61
69751;BME280;57335;52.288;6.056;2023-08-08T07:21:26;101225.53;;;31.80;38.92
69751;BME280;57335;52.288;6.056;2023-08-08T07:23:52;101216.00;;;31.98;39.53
69751;BME280;57335;52.288;6.056;2023-08-08T07:26:18;101223.22;;;32.07;35.86
69751;BME280;57335;52.288;6.056;2023-08-08T07:28:45;101220.91;;;32.21;38.85
69751;BME280;57335;52.288;6.056;2023-08-08T07:31:11;101214.38;;;32.22;36.80
69751;BME280;57335;52.288;6.056;2023-08-08T07:33:38;101223.06;;;32.28;38.09
69751;BME280;57335;52.288;6.056;2023-08-08T07:36:04;101214.38;;;32.22;35.67
69751;BME280;57335;52.288;6.056;2023-08-08T07:38:31;101207.56;;;32.28;37.57
69751;BME280;57335;52.288;6.056;2023-08-08T07:40:57;101202.97;;;32.16;36.26
69751;BME280;57335;52.288;6.056;2023-08-08T07:43:23;101203.31;;;32.15;36.69
69751;BME280;57335;52.288;6.056;2023-08-08T07:45:50;101206.06;;;32.03;36.39
69751;BME280;57335;52.288;6.056;2023-08-08T07:48:16;101211.94;;;32.05;36.02
69751;BME280;57335;52.288;6.056;2023-08-08T07:50:42;101206.28;;;32.10;38.15
69751;BME280;57335;52.288;6.056;2023-08-08T07:53:09;101209.56;;;32.03;35.06
69751;BME280;57335;52.288;6.056;2023-08-08T07:55:35;101206.53;;;31.92;37.68
69751;BME280;57335;52.288;6.056;2023-08-08T07:58:02;101199.88;;;31.90;38.19
69751;BME280;57335;52.288;6.056;2023-08-08T08:00:28;101192.63;;;31.94;37.86
69751;BME280;57335;52.288;6.056;2023-08-08T08:02:54;101201.78;;;32.02;37.37
69751;BME280;57335;52.288;6.056;2023-08-08T08:05:21;101205.41;;;32.06;37.30
69751;BME280;57335;52.288;6.056;2023-08-08T08:07:47;101213.75;;;32.00;37.13
69751;BME280;57335;52.288;6.056;2023-08-08T08:10:14;101199.50;;;31.91;37.72
69751;BME280;57335;52.288;6.056;2023-08-08T08:12:41;101196.75;;;31.75;37.72
69751;BME280;57335;52.288;6.056;2023-08-08T08:15:08;101218.78;;;31.62;38.10
69751;BME280;57335;52.288;6.056;2023-08-08T08:17:35;101202.03;;;31.10;35.40
69751;BME280;57335;52.288;6.056;2023-08-08T08:20:02;101205.38;;;30.49;38.79
69751;BME280;57335;52.288;6.056;2023-08-08T08:22:28;101198.84;;;30.08;38.25
69751;BME280;57335;52.288;6.056;2023-08-08T08:24:54;101200.41;;;29.88;39.15
69751;BME280;57335;52.288;6.056;2023-08-08T08:27:21;101199.78;;;29.53;38.95
69751;BME280;57335;52.288;6.056;2023-08-08T08:29:48;101205.50;;;29.21;40.72
69751;BME280;57335;52.288;6.056;2023-08-08T08:32:14;101196.03;;;28.98;42.14
69751;BME280;57335;52.288;6.056;2023-08-08T08:34:40;101191.13;;;28.91;42.73
69751;BME280;57335;52.288;6.056;2023-08-08T08:37:07;101191.34;;;28.77;41.71
69751;BME280;57335;52.288;6.056;2023-08-08T08:39:33;101193.56;;;28.75;41.52
69751;BME280;57335;52.288;6.056;2023-08-08T08:42:00;101184.06;;;28.69;41.49
69751;BME280;57335;52.288;6.056;2023-08-08T08:44:30;101186.41;;;28.44;39.84
69751;BME280;57335;52.288;6.056;2023-08-08T08:46:59;101196.28;;;28.32;41.06
69751;BME280;57335;52.288;6.056;2023-08-08T08:49:29;101183.09;;;27.95;42.18
69751;BME280;57335;52.288;6.056;2023-08-08T08:51:57;101179.56;;;27.69;44.10
69751;BME280;57335;52.288;6.056;2023-08-08T08:54:25;101183.84;;;27.30;43.59
69751;BME280;57335;52.288;6.056;2023-08-08T08:56:51;101179.84;;;27.18;45.93
69751;BME280;57335;52.288;6.056;2023-08-08T08:59:18;101189.78;;;27.18;46.27
69751;BME280;57335;52.288;6.056;2023-08-08T09:01:44;101178.91;;;27.23;46.57
69751;BME280;57335;52.288;6.056;2023-08-08T09:04:11;101192.97;;;27.51;46.65
69751;BME280;57335;52.288;6.056;2023-08-08T09:06:38;101186.41;;;27.92;45.41
69751;BME280;57335;52.288;6.056;2023-08-08T09:09:05;101177.41;;;28.05;44.01
69751;BME280;57335;52.288;6.056;2023-08-08T09:11:44;101176.53;;;27.70;43.61
69751;BME280;57335;52.288;6.056;2023-08-08T09:14:25;101184.97;;;27.06;44.80
69751;BME280;57335;52.288;6.056;2023-08-08T09:16:52;101182.09;;;26.26;47.06
69751;BME280;57335;52.288;6.056;2023-08-08T09:19:20;101181.88;;;25.58;47.78
69751;BME280;57335;52.288;6.056;2023-08-08T09:21:47;101184.97;;;25.05;48.74
69751;BME280;57335;52.288;6.056;2023-08-08T09:24:14;101194.78;;;24.63;50.06
69751;BME280;57335;52.288;6.056;2023-08-08T09:26:42;101181.75;;;24.18;50.17
69751;BME280;57335;52.288;6.056;2023-08-08T09:29:10;101199.94;;;23.78;51.51
69751;BME280;57335;52.288;6.056;2023-08-08T09:31:37;101199.81;;;23.35;51.83
69751;BME280;57335;52.288;6.056;2023-08-08T09:34:04;101187.59;;;23.00;53.62
69751;BME280;57335;52.288;6.056;2023-08-08T09:36:30;101189.09;;;22.77;54.57
69751;BME280;57335;52.288;6.056;2023-08-08T09:38:59;101193.75;;;22.61;55.52
69751;BME280;57335;52.288;6.056;2023-08-08T09:41:26;101196.94;;;22.63;56.74
69751;BME280;57335;52.288;6.056;2023-08-08T09:43:53;101194.28;;;22.63;54.28
69751;BME280;57335;52.288;6.056;2023-08-08T09:46:21;101206.13;;;22.52;54.97
69751;BME280;57335;52.288;6.056;2023-08-08T09:48:48;101194.75;;;22.36;56.79
69751;BME280;57335;52.288;6.056;2023-08-08T09:51:14;101198.97;;;22.42;56.63
69751;BME280;57335;52.288;6.056;2023-08-08T09:53:41;101200.88;;;22.31;52.52
69751;BME280;57335;52.288;6.056;2023-08-08T09:56:08;101202.25;;;22.23;55.83
69751;BME280;57335;52.288;6.056;2023-08-08T09:58:34;101191.38;;;22.09;56.46
69751;BME280;57335;52.288;6.056;2023-08-08T10:01:01;101191.97;;;21.96;56.98
69751;BME280;57335;52.288;6.056;2023-08-08T10:03:27;101193.59;;;21.87;57.89
69751;BME280;57335;52.288;6.056;2023-08-08T10:05:54;101181.38;;;21.76;57.35
69751;BME280;57335;52.288;6.056;2023-08-08T10:08:21;101203.22;;;21.83;57.42
69751;BME280;57335;52.288;6.056;2023-08-08T10:10:48;101196.06;;;21.73;56.08
69751;BME280;57335;52.288;6.056;2023-08-08T10:13:21;101195.03;;;21.64;57.28
69751;BME280;57335;52.288;6.056;2023-08-08T10:15:47;101200.09;;;21.60;57.89
69751;BME280;57335;52.288;6.056;2023-08-08T10:18:14;101198.50;;;21.39;57.16
69751;BME280;57335;52.288;6.056;2023-08-08T10:20:46;101202.78;;;21.35;58.30
69751;BME280;57335;52.288;6.056;2023-08-08T10:23:17;101204.94;;;21.22;59.53
69751;BME280;57335;52.288;6.056;2023-08-08T10:25:45;101194.31;;;21.02;59.36
69751;BME280;57335;52.288;6.056;2023-08-08T10:28:13;101199.09;;;20.84;60.30
69751;BME280;57335;52.288;6.056;2023-08-08T10:30:53;101212.94;;;20.76;62.12
69751;BME280;57335;52.288;6.056;2023-08-08T10:33:40;101206.53;;;20.72;61.86
69751;BME280;57335;52.288;6.056;2023-08-08T10:36:08;101200.16;;;20.78;62.72
69751;BME280;57335;52.288;6.056;2023-08-08T10:38:45;101203.63;;;20.84;61.36
69751;BME280;57335;52.288;6.056;2023-08-08T10:41:14;101196.69;;;20.72;61.24
69751;BME280;57335;52.288;6.056;2023-08-08T10:43:55;101190.25;;;20.58;62.41
69751;BME280;57335;52.288;6.056;2023-08-08T10:46:30;101202.78;;;20.58;61.95
69751;BME280;57335;52.288;6.056;2023-08-08T10:48:58;101207.06;;;20.64;62.92
69751;BME280;57335;52.288;6.056;2023-08-08T10:51:38;101207.91;;;20.85;64.92
69751;BME280;57335;52.288;6.056;2023-08-08T10:54:25;101202.56;;;21.00;62.53
69751;BME280;57335;52.288;6.056;2023-08-08T10:56:54;101191.34;;;21.24;63.82
69751;BME280;57335;52.288;6.056;2023-08-08T10:59:22;101194.81;;;21.45;62.63
69751;BME280;57335;52.288;6.056;2023-08-08T11:01:51;101194.25;;;21.58;60.13
69751;BME280;57335;52.288;6.056;2023-08-08T11:04:22;101198.78;;;21.58;59.19
69751;BME280;57335;52.288;6.056;2023-08-08T11:06:49;101201.97;;;21.55;59.39
69751;BME280;57335;52.288;6.056;2023-08-08T11:09:17;101190.00;;;21.52;59.92
69751;BME280;57335;52.288;6.056;2023-08-08T11:11:44;101195.56;;;21.66;60.65
69751;BME280;57335;52.288;6.056;2023-08-08T11:14:21;101208.25;;;22.00;60.96
69751;BME280;57335;52.288;6.056;2023-08-08T11:16:48;101190.78;;;22.28;59.44
69751;BME280;57335;52.288;6.056;2023-08-08T11:19:16;101202.38;;;22.53;58.00
69751;BME280;57335;52.288;6.056;2023-08-08T11:21:44;101212.47;;;22.61;56.51
69751;BME280;57335;52.288;6.056;2023-08-08T11:24:12;101196.34;;;22.71;55.26
69751;BME280;57335;52.288;6.056;2023-08-08T11:26:43;101204.00;;;22.83;55.41
69751;BME280;57335;52.288;6.056;2023-08-08T11:29:09;101201.22;;;22.98;57.14
69751;BME280;57335;52.288;6.056;2023-08-08T11:31:36;101193.53;;;23.26;55.01
69751;BME280;57335;52.288;6.056;2023-08-08T11:34:04;101208.72;;;23.30;54.38
69751;BME280;57335;52.288;6.056;2023-08-08T11:36:32;101204.91;;;23.37;55.33
69751;BME280;57335;52.288;6.056;2023-08-08T11:39:03;101199.44;;;23.47;52.72
69751;BME280;57335;52.288;6.056;2023-08-08T11:41:30;101200.25;;;23.47;53.69
69751;BME280;57335;52.288;6.056;2023-08-08T11:43:58;101203.13;;;23.27;53.03
69751;BME280;57335;52.288;6.056;2023-08-08T11:46:25;101189.94;;;23.06;53.98
69751;BME280;57335;52.288;6.056;2023-08-08T11:48:51;101202.09;;;22.88;53.82
69751;BME280;57335;52.288;6.056;2023-08-08T11:51:18;101201.16;;;22.74;53.06
69751;BME280;57335;52.288;6.056;2023-08-08T11:53:52;101194.28;;;22.63;54.84
69751;BME280;57335;52.288;6.056;2023-08-08T11:56:20;101203.94;;;22.59;54.82
69751;BME280;57335;52.288;6.056;2023-08-08T11:58:50;101198.31;;;22.60;55.47
69751;BME280;57335;52.288;6.056;2023-08-08T12:01:22;101199.16;;;22.56;55.43
69751;BME280;57335;52.288;6.056;2023-08-08T12:03:49;101194.31;;;22.58;56.61
69751;BME280;57335;52.288;6.056;2023-08-08T12:06:16;101202.06;;;22.59;55.83
69751;BME280;57335;52.288;6.056;2023-08-08T12:08:43;101197.28;;;22.51;55.10
69751;BME280;57335;52.288;6.056;2023-08-08T12:11:12;101187.78;;;22.35;54.47
69751;BME280;57335;52.288;6.056;2023-08-08T12:13:41;101199.56;;;22.34;55.57
69751;BME280;57335;52.288;6.056;2023-08-08T12:16:12;101189.19;;;22.22;54.57
69751;BME280;57335;52.288;6.056;2023-08-08T12:18:43;101184.94;;;22.16;56.65
69751;BME280;57335;52.288;6.056;2023-08-08T12:21:10;101183.66;;;22.08;56.77
69751;BME280;57335;52.288;6.056;2023-08-08T12:23:36;101173.03;;;21.98;56.86
69751;BME280;57335;52.288;6.056;2023-08-08T12:26:04;101199.16;;;22.01;57.54
69751;BME280;57335;52.288;6.056;2023-08-08T12:28:31;101192.75;;;21.97;58.15
69751;BME280;57335;52.288;6.056;2023-08-08T12:30:58;101190.03;;;22.07;58.73
69751;BME280;57335;52.288;6.056;2023-08-08T12:33:24;101192.44;;;22.14;58.67
69751;BME280;57335;52.288;6.056;2023-08-08T12:35:51;101198.81;;;22.13;58.50
69751;BME280;57335;52.288;6.056;2023-08-08T12:38:17;101185.56;;;21.97;57.41
69751;BME280;57335;52.288;6.056;2023-08-08T12:40:43;101187.16;;;21.98;58.81
69751;BME280;57335;52.288;6.056;2023-08-08T12:43:10;101198.25;;;22.21;59.66
69751;BME280;57335;52.288;6.056;2023-08-08T12:45:37;101191.22;;;22.40;58.94